Time;durP1;ratioP1;P1;durP2;ratioP2;P2;SDS_P1;SDS_P2;PMS_P1;PMS_P2;Temp;Humidity;BMP_temperature;BMP_pressure;BME280_temperature;BME280_humidity;BME280_pressure;Samples;Min_cycle;Max_cycle;Signal;HPM_P1;HPM_P2
2022/11/22 00:02:22;;;;;;;20.58;8.18;;;;;;;6.00;100.00;98918.50;4944201;28;20427;-80
2022/11/22 00:04:47;;;;;;;20.20;8.75;;;;;;;5.98;100.00;98917.88;4956363;28;20550;-80
2022/11/22 00:07:13;;;;;;;17.23;7.28;;;;;;;5.91;100.00;98915.16;4952341;28;20506;-80
2022/11/22 00:09:38;;;;;;;20.55;7.85;;;;;;;5.93;100.00;98913.09;4957378;28;20042;-80
2022/11/22 00:12:03;;;;;;;28.27;8.00;;;;;;;5.86;100.00;98910.41;4957174;28;20054;-81
2022/11/22 00:14:29;;;;;;;20.90;7.63;;;;;;;5.85;100.00;98908.75;4955099;28;20106;-80
2022/11/22 00:16:54;;;;;;;22.52;7.80;;;;;;;5.78;100.00;98905.22;4958912;28;20186;-80
2022/11/22 00:19:19;;;;;;;21.63;8.23;;;;;;;5.78;100.00;98910.56;4942776;28;20126;-81
2022/11/22 00:21:45;;;;;;;24.35;8.20;;;;;;;5.77;100.00;98911.59;4957776;28;20043;-80
2022/11/22 00:24:11;;;;;;;21.40;8.00;;;;;;;5.79;100.00;98909.53;4960669;28;20051;-79
2022/11/22 00:26:36;;;;;;;24.45;7.57;;;;;;;5.75;100.00;98916.31;4959184;28;20045;-80
2022/11/22 00:29:02;;;;;;;24.30;9.10;;;;;;;5.70;100.00;98914.22;4974621;28;20220;-79
2022/11/22 00:31:27;;;;;;;22.65;8.65;;;;;;;5.69;100.00;98919.78;4966852;28;20031;-79
2022/11/22 00:33:53;;;;;;;21.90;8.13;;;;;;;5.73;100.00;98915.69;4971354;28;20031;-78
2022/11/22 00:36:18;;;;;;;20.02;7.22;;;;;;;5.70;100.00;98913.41;4971433;28;20098;-78
2022/11/22 00:38:43;;;;;;;25.90;8.48;;;;;;;5.64;100.00;98908.88;4972103;28;20381;-79
2022/11/22 00:41:09;;;;;;;17.75;6.80;;;;;;;5.67;100.00;98911.13;4967298;28;20027;-80
2022/11/22 00:43:34;;;;;;;21.88;7.28;;;;;;;5.70;100.00;98924.09;4971518;28;20464;-81
2022/11/22 00:46:00;;;;;;;22.75;6.97;;;;;;;5.79;100.00;98917.53;4960436;28;20086;-80
2022/11/22 00:48:25;;;;;;;21.05;6.40;;;;;;;5.83;100.00;98923.31;4959049;28;20054;-80
2022/11/22 00:50:51;;;;;;;23.40;6.05;;;;;;;5.89;100.00;98915.34;4958369;28;20035;-80
2022/11/22 00:53:16;;;;;;;25.77;5.45;;;;;;;5.84;100.00;98920.44;4957894;28;20118;-81
2022/11/22 00:55:42;;;;;;;24.58;5.55;;;;;;;5.74;100.00;98925.34;4942849;29;20031;-79
2022/11/22 00:58:07;;;;;;;29.13;6.15;;;;;;;5.67;100.00;98924.47;4970635;28;20039;-79
2022/11/22 01:00:33;;;;;;;22.15;4.97;;;;;;;5.66;100.00;98920.16;4955483;28;20027;-79
2022/11/22 01:02:58;;;;;;;22.92;4.72;;;;;;;5.66;100.00;98921.00;4956054;28;20327;-77
2022/11/22 01:05:23;;;;;;;23.00;4.78;;;;;;;5.71;100.00;98915.03;4957196;29;20074;-79
2022/11/22 01:07:49;;;;;;;33.47;4.78;;;;;;;5.70;100.00;98918.75;4956750;28;20035;-80
2022/11/22 01:10:14;;;;;;;28.63;5.32;;;;;;;5.69;100.00;98911.78;4958077;28;20066;-79
2022/11/22 01:12:40;;;;;;;22.95;4.80;;;;;;;5.69;100.00;98911.78;4956245;29;20165;-78
2022/11/22 01:15:05;;;;;;;19.05;4.28;;;;;;;5.64;100.00;98908.88;4955767;29;20046;-79
2022/11/22 01:17:31;;;;;;;27.77;4.43;;;;;;;5.64;100.00;98908.88;4957459;28;20042;-78
2022/11/22 01:19:56;;;;;;;20.40;4.63;;;;;;;5.57;100.00;98892.81;4952254;28;20059;-80
2022/11/22 01:25:17;;;;;;;20.52;4.35;;;;;;;5.60;100.00;98910.28;3965909;23;20066;-84
2022/11/22 01:27:42;;;;;;;26.38;4.03;;;;;;;5.59;100.00;98922.78;4945440;29;20039;-83
2022/11/22 01:30:08;;;;;;;26.85;4.10;;;;;;;5.58;100.00;98925.66;4960661;29;20050;-85
2022/11/22 01:32:33;;;;;;;21.73;3.78;;;;;;;5.57;100.00;98916.00;4948834;29;20079;-86
2022/11/22 01:34:59;;;;;;;19.45;3.65;;;;;;;5.55;100.00;98921.53;4947567;29;20032;-85
2022/11/22 01:37:24;;;;;;;18.75;3.63;;;;;;;5.54;100.00;98919.91;4947618;29;20027;-83
2022/11/22 01:39:49;;;;;;;24.10;3.72;;;;;;;5.57;100.00;98921.34;4968501;29;20035;-86
2022/11/22 01:42:15;;;;;;;13.00;3.20;;;;;;;5.50;100.00;98914.13;4953119;29;20063;-85
2022/11/22 01:44:41;;;;;;;26.02;3.78;;;;;;;5.49;100.00;98912.47;4951528;29;20016;-84
2022/11/22 01:47:16;;;;;;;23.60;3.47;;;;;;;5.47;100.00;98909.16;4950871;29;20023;-85
2022/11/22 01:49:48;;;;;;;31.20;4.68;;;;;;;5.49;100.00;98917.81;4946710;29;20070;-85
2022/11/22 01:52:20;;;;;;;17.65;3.78;;;;;;;5.50;100.00;98907.94;4949465;29;20028;-86
2022/11/22 01:54:52;;;;;;;25.30;3.83;;;;;;;5.49;100.00;98917.81;4945702;29;20031;-84
2022/11/22 01:57:23;;;;;;;31.67;4.30;;;;;;;5.43;100.00;98917.78;4940251;29;20100;-84
2022/11/22 02:00:03;;;;;;;17.42;3.80;;;;;;;5.42;100.00;98921.44;4945637;29;20488;-84
2022/11/22 02:02:28;;;;;;;26.63;4.90;;;;;;;5.39;100.00;98928.00;4946423;29;20110;-85
2022/11/22 02:04:56;;;;;;;27.60;5.30;;;;;;;5.37;100.00;98932.72;4945214;29;20062;-83
2022/11/22 02:07:40;;;;;;;20.17;4.30;;;;;;;5.37;100.00;98932.72;4961673;29;20024;-83
2022/11/22 02:10:07;;;;;;;26.83;4.75;;;;;;;5.38;100.00;98926.38;4942991;29;20035;-83
2022/11/22 02:12:33;;;;;;;19.83;5.55;;;;;;;5.36;100.00;98933.72;4950238;29;20043;-84
2022/11/22 02:14:58;;;;;;;29.23;4.75;;;;;;;5.33;100.00;98938.66;4951589;29;20082;-81
2022/11/22 02:17:25;;;;;;;30.20;4.45;;;;;;;5.34;100.00;98929.59;4965600;29;20058;-83
2022/11/22 02:19:52;;;;;;;25.65;3.63;;;;;;;5.33;100.00;98923.47;4971187;29;20169;-83
2022/11/22 02:22:20;;;;;;;19.10;3.55;;;;;;;5.34;100.00;98924.28;4955516;29;20031;-85
2022/11/22 02:25:02;;;;;;;28.23;3.53;;;;;;;5.37;100.00;98930.06;4971129;28;20112;-84
2022/11/22 02:27:27;;;;;;;20.77;3.05;;;;;;;5.39;100.00;98922.66;4954462;29;20039;-82
2022/11/22 02:29:53;;;;;;;18.48;2.95;;;;;;;5.41;100.00;98933.97;4961899;28;20059;-83
2022/11/22 02:32:18;;;;;;;15.65;2.78;;;;;;;5.44;100.00;98933.56;4976090;28;20031;-84
2022/11/22 02:34:46;;;;;;;18.77;2.38;;;;;;;5.45;100.00;98931.72;4967737;29;20035;-85
2022/11/22 02:37:13;;;;;;;32.20;3.45;;;;;;;5.45;100.00;98937.91;4942569;29;20059;-84
2022/11/22 02:39:39;;;;;;;18.40;2.03;;;;;;;5.45;100.00;98940.56;4935746;29;20031;-84
2022/11/22 02:42:05;;;;;;;26.80;3.10;;;;;;;5.45;100.00;98937.06;4950149;29;20342;-84
2022/11/22 02:44:30;;;;;;;22.42;3.10;;;;;;;5.44;100.00;98957.59;4948745;29;20112;-82
2022/11/22 02:46:55;;;;;;;29.88;2.92;;;;;;;5.46;100.00;98938.72;4968147;28;20043;-84
2022/11/22 02:49:22;;;;;;;19.33;2.45;;;;;;;5.44;100.00;98946.09;4954411;29;20031;-85
2022/11/22 02:51:49;;;;;;;26.30;3.20;;;;;;;5.48;100.00;98948.19;4936108;29;20027;-86
2022/11/22 02:54:14;;;;;;;16.88;2.63;;;;;;;5.47;100.00;98933.19;4970088;29;20031;-85
2022/11/22 02:56:40;;;;;;;18.20;2.38;;;;;;;5.49;100.00;98939.16;4968661;29;20027;-81
2022/11/22 02:59:05;;;;;;;15.43;3.05;;;;;;;5.51;100.00;98941.63;4949999;29;20027;-81
2022/11/22 03:01:30;;;;;;;11.15;2.30;;;;;;;5.53;100.00;98944.09;4937877;29;20587;-84
2022/11/22 03:03:56;;;;;;;14.70;2.08;;;;;;;5.57;100.00;98950.69;4963472;29;20060;-85
2022/11/22 03:06:21;;;;;;;11.10;1.65;;;;;;;5.60;100.00;98950.31;4965453;29;20118;-85
2022/11/22 03:08:49;;;;;;;12.27;2.28;;;;;;;5.58;100.00;98955.00;4965874;29;20046;-81
2022/11/22 03:11:15;;;;;;;;;;;;;;;5.59;100.00;98954.00;4948463;29;20042;-86
2022/11/22 03:13:40;;;;;;;17.80;2.00;;;;;;;5.58;100.00;98955.00;4964460;29;19910;-86
2022/11/22 03:16:06;;;;;;;13.65;1.83;;;;;;;5.58;100.00;98953.19;4951429;29;20035;-86
2022/11/22 03:18:35;;;;;;;14.80;2.70;;;;;;;5.58;100.00;98955.00;4974441;29;20035;-86
2022/11/22 03:21:02;;;;;;;14.20;1.77;;;;;;;5.57;100.00;98956.03;4953399;29;20036;-85
2022/11/22 03:23:28;;;;;;;16.30;2.05;;;;;;;5.55;100.00;98958.06;4944101;29;20080;-84
2022/11/22 03:25:53;;;;;;;12.40;1.58;;;;;;;5.48;100.00;98956.19;4953259;29;20043;-84
2022/11/22 03:28:19;;;;;;;14.25;2.03;;;;;;;5.42;100.00;98950.78;4980485;28;20027;-82
2022/11/22 03:30:44;;;;;;;20.48;2.70;;;;;;;5.38;100.00;98961.03;4963255;28;20030;-86
2022/11/22 03:33:09;;;;;;;12.70;2.90;;;;;;;5.34;100.00;98962.44;4940005;23;20066;-34
2022/11/22 03:35:35;;;;;;;14.75;2.00;;;;;;;5.29;100.00;98948.84;4898960;29;20115;-35
2022/11/22 03:38:00;;;;;;;16.88;2.28;;;;;;;5.26;100.00;98955.41;4913988;29;20079;-36
2022/11/22 03:40:26;;;;;;;14.35;2.35;;;;;;;5.27;100.00;98959.75;4932468;29;20471;-36
2022/11/22 03:42:51;;;;;;;11.60;2.22;;;;;;;5.26;100.00;98944.72;4918087;29;20364;-37
2022/11/22 03:45:16;;;;;;;16.33;2.17;;;;;;;5.24;100.00;98945.97;4931785;29;20504;-36
2022/11/22 03:47:42;;;;;;;16.42;1.80;;;;;;;5.23;100.00;98950.47;4932561;29;20438;-35
2022/11/22 03:50:07;;;;;;;13.35;1.85;;;;;;;5.22;100.00;98954.16;4933171;29;20046;-37
2022/11/22 03:52:33;;;;;;;6.97;1.45;;;;;;;5.20;100.00;98956.19;4936890;29;20119;-37
2022/11/22 03:54:58;;;;;;;13.27;1.95;;;;;;;5.18;100.00;98954.72;4932171;29;20186;-34
2022/11/22 03:57:23;;;;;;;18.05;2.10;;;;;;;5.15;100.00;98963.13;4920513;29;20043;-36
2022/11/22 03:59:49;;;;;;;14.48;1.73;;;;;;;5.13;100.00;98960.63;4920327;29;20034;-34
2022/11/22 04:02:15;;;;;;;14.32;1.98;;;;;;;5.10;100.00;98960.22;4932109;29;20081;-36
2022/11/22 04:04:41;;;;;;;14.35;2.00;;;;;;;5.05;100.00;98952.78;4919040;29;20036;-37
2022/11/22 04:07:06;;;;;;;13.48;2.75;;;;;;;5.03;100.00;98976.16;4930294;29;20071;-36
2022/11/22 04:09:31;;;;;;;11.65;1.75;;;;;;;5.02;100.00;98962.00;4932396;29;20456;-35
2022/11/22 04:11:57;;;;;;;12.10;1.80;;;;;;;5.04;100.00;98973.28;4936578;29;20394;-36
2022/11/22 04:17:06;;;;;;;16.83;1.88;;;;;;;5.02;100.00;98964.66;4921037;29;20095;-37
2022/11/22 04:19:31;;;;;;;17.25;2.38;;;;;;;5.00;100.00;98961.38;4918865;29;20430;-35
2022/11/22 04:21:56;;;;;;;10.40;1.92;;;;;;;4.95;100.00;98969.13;4921146;29;20399;-36
2022/11/22 04:27:06;;;;;;;11.52;1.98;;;;;;;4.89;100.00;98985.88;4918451;29;20115;-35
2022/11/22 04:29:31;;;;;;;9.23;2.10;;;;;;;4.92;100.00;98974.81;4922525;29;20035;-38
2022/11/22 04:34:40;;;;;;;10.75;1.85;;;;;;;4.98;100.00;98979.41;4914241;29;20562;-35
2022/11/22 04:37:06;;;;;;;22.00;2.22;;;;;;;4.98;100.00;98974.06;4912838;29;20047;-36
2022/11/22 04:39:31;;;;;;;20.60;2.05;;;;;;;5.00;100.00;98980.03;4912089;29;20020;-36
2022/11/22 04:44:41;;;;;;;14.05;2.85;;;;;;;5.08;100.00;98995.06;4912781;29;20100;-34
2022/11/22 04:47:57;;;;;;;16.85;2.10;;;;;;;5.13;100.00;98991.81;4912710;29;20036;-34
2022/11/22 04:52:52;;;;;;;12.32;1.90;;;;;;;5.30;100.00;98995.88;4912674;29;20036;-35
2022/11/22 04:52:53;;;;;;;20.23;2.85;;;;;;;5.24;100.00;98988.66;4912014;29;20044;-36
2022/11/22 04:55:18;;;;;;;20.20;2.95;;;;;;;5.28;100.00;98995.22;4902329;29;20040;-36
2022/11/22 04:57:43;;;;;;;15.75;2.72;;;;;;;5.30;100.00;98987.88;4910308;29;20035;-34
2022/11/22 05:00:09;;;;;;;18.27;2.83;;;;;;;5.19;100.00;98999.88;4886903;29;20028;-36
2022/11/22 05:02:34;;;;;;;14.68;2.47;;;;;;;5.13;100.00;98995.31;4914184;29;20032;-35
2022/11/22 05:05:00;;;;;;;11.25;2.53;;;;;;;5.10;100.00;98997.53;4915539;29;20030;-36
2022/11/22 05:07:25;;;;;;;16.73;3.30;;;;;;;5.10;100.00;98997.53;4912250;29;20039;-36
2022/11/22 05:09:50;;;;;;;15.05;2.80;;;;;;;5.09;100.00;98995.91;4911300;29;20040;-36
2022/11/22 05:12:16;;;;;;;16.38;2.95;;;;;;;5.05;100.00;98993.63;4914118;29;20054;-38
2022/11/22 05:14:41;;;;;;;12.02;2.80;;;;;;;5.04;100.00;98993.81;4909155;29;20028;-36
2022/11/22 05:17:06;;;;;;;16.65;2.72;;;;;;;5.00;100.00;98988.03;4911715;29;20036;-38
2022/11/22 05:19:32;;;;;;;14.15;3.30;;;;;;;5.02;100.00;98996.66;4912139;29;20127;-37
2022/11/22 05:21:57;;;;;;;14.20;2.72;;;;;;;5.04;100.00;98996.47;4913294;29;20131;-37
2022/11/22 05:24:22;;;;;;;21.10;3.42;;;;;;;5.04;100.00;98993.81;4911866;29;20479;-37
2022/11/22 05:26:48;;;;;;;14.63;2.28;;;;;;;5.04;100.00;98989.28;4923164;29;20031;-37
2022/11/22 05:29:13;;;;;;;12.52;2.78;;;;;;;4.99;100.00;98991.69;4915020;29;20055;-37
2022/11/22 05:31:39;;;;;;;16.40;3.13;;;;;;;5.03;100.00;98989.50;4912844;29;20116;-35
2022/11/22 05:34:05;;;;;;;8.63;3.00;;;;;;;4.99;100.00;99005.03;4911448;29;20036;-36
2022/11/22 05:36:32;;;;;;;14.40;3.00;;;;;;;4.96;100.00;98992.09;4910608;29;20463;-37
2022/11/22 05:38:57;;;;;;;16.17;3.80;;;;;;;4.96;100.00;98997.41;4897016;29;20075;-36
2022/11/22 05:41:23;;;;;;;18.40;3.38;;;;;;;4.98;100.00;99000.72;4911175;29;20407;-34
2022/11/22 05:43:48;;;;;;;8.82;2.80;;;;;;;5.00;100.00;99003.19;4912036;29;20542;-34
2022/11/22 05:46:21;;;;;;;9.02;2.50;;;;;;;5.02;100.00;98996.66;4891205;29;20029;-35
2022/11/22 05:48:47;;;;;;;12.77;2.75;;;;;;;5.04;100.00;98994.63;4909045;29;20131;-36
2022/11/22 05:51:14;;;;;;;12.73;2.83;;;;;;;5.12;100.00;98995.50;4910996;29;20036;-35
2022/11/22 05:53:40;;;;;;;18.33;3.20;;;;;;;5.10;100.00;98994.88;4911587;29;20032;-35
2022/11/22 05:56:14;;;;;;;9.68;2.72;;;;;;;5.03;100.00;99000.16;4911229;29;20047;-33
2022/11/22 05:58:40;;;;;;;10.75;2.72;;;;;;;5.01;100.00;98992.34;4909393;29;20042;-35
2022/11/22 06:01:09;;;;;;;16.65;3.47;;;;;;;5.11;100.00;98996.50;4910245;29;20118;-37
2022/11/22 06:03:35;;;;;;;12.45;3.35;;;;;;;5.14;100.00;98993.47;4912205;29;20483;-35
2022/11/22 06:06:00;;;;;;;13.25;3.83;;;;;;;5.13;100.00;98991.81;4909411;29;20492;-37
2022/11/22 06:08:28;;;;;;;11.93;3.50;;;;;;;5.06;100.00;98981.94;4910896;29;20132;-36
2022/11/22 06:10:54;;;;;;;15.18;4.25;;;;;;;5.01;100.00;98984.34;4911048;29;20051;-36
2022/11/22 06:13:19;;;;;;;10.98;4.03;;;;;;;4.97;100.00;98990.25;4909087;29;20399;-38
2022/11/22 06:15:44;;;;;;;19.95;5.40;;;;;;;4.93;100.00;98984.47;4911110;29;20378;-35
2022/11/22 06:18:10;;;;;;;14.82;4.53;;;;;;;4.89;100.00;98998.38;4911788;29;20111;-35
2022/11/22 06:20:35;;;;;;;13.70;4.57;;;;;;;4.90;100.00;98998.19;4911785;29;20060;-36
2022/11/22 06:23:00;;;;;;;9.35;4.82;;;;;;;4.82;100.00;98990.31;4914210;29;20547;-36
2022/11/22 06:25:26;;;;;;;17.20;6.15;;;;;;;4.82;100.00;98985.81;4914814;29;20107;-38
2022/11/22 06:27:51;;;;;;;13.52;5.38;;;;;;;4.81;100.00;98986.00;4914024;29;20124;-35
2022/11/22 06:30:16;;;;;;;12.25;5.07;;;;;;;4.86;100.00;98988.91;4914495;29;20043;-37
2022/11/22 06:32:42;;;;;;;16.52;4.78;;;;;;;4.83;100.00;98990.13;4914308;29;20182;-37
2022/11/22 06:35:08;;;;;;;16.05;5.22;;;;;;;4.79;100.00;98988.00;4914717;29;20099;-39
2022/11/22 06:37:33;;;;;;;23.25;5.75;;;;;;;4.76;100.00;98993.72;4915340;29;20111;-36
2022/11/22 06:39:58;;;;;;;14.93;4.95;;;;;;;4.74;100.00;98990.41;4913961;29;20036;-37
2022/11/22 06:42:24;;;;;;;13.00;4.78;;;;;;;4.83;100.00;98989.31;4914931;29;20063;-37
2022/11/22 06:44:49;;;;;;;17.70;5.43;;;;;;;4.82;100.00;98983.16;4914103;29;20036;-35
2022/11/22 06:47:16;;;;;;;10.50;5.30;;;;;;;4.77;100.00;98987.41;4914801;29;20024;-36
2022/11/22 06:49:42;;;;;;;14.35;4.50;;;;;;;4.78;100.00;98991.72;4914058;29;20464;-38
2022/11/22 06:52:07;;;;;;;13.40;5.15;;;;;;;4.75;100.00;98986.75;4914592;29;20043;-36
2022/11/22 06:54:32;;;;;;;18.50;5.38;;;;;;;4.73;100.00;99002.09;4914229;29;20391;-38
2022/11/22 06:56:58;;;;;;;12.38;4.90;;;;;;;4.69;100.00;98985.69;4906275;29;20471;-39
2022/11/22 06:59:23;;;;;;;15.43;5.47;;;;;;;4.77;100.00;98993.56;4905826;29;20039;-37
2022/11/22 07:01:48;;;;;;;17.25;4.90;;;;;;;4.74;100.00;99001.09;4921883;29;20035;-35
2022/11/22 07:04:14;;;;;;;16.42;5.45;;;;;;;4.71;100.00;99009.47;4935887;29;20102;-34
2022/11/22 07:06:39;;;;;;;10.45;4.38;;;;;;;4.73;100.00;98997.59;4929383;29;20087;-36
2022/11/22 07:09:08;;;;;;;14.23;4.93;;;;;;;4.71;100.00;98996.13;4916748;29;20040;-35
2022/11/22 07:11:34;;;;;;;10.23;4.88;;;;;;;4.78;100.00;98997.03;4914810;29;20075;-36
2022/11/22 07:14:01;;;;;;;12.93;5.32;;;;;;;4.82;100.00;99001.00;4915615;29;20040;-38
2022/11/22 07:16:26;;;;;;;15.52;4.28;;;;;;;4.78;100.00;99000.53;4919815;29;20435;-37
2022/11/22 07:18:51;;;;;;;11.45;4.47;;;;;;;4.76;100.00;99002.53;4916427;29;20036;-36
2022/11/22 07:21:22;;;;;;;15.20;4.15;;;;;;;4.78;100.00;98999.69;4916664;29;20031;-38
2022/11/22 07:23:50;;;;;;;10.00;4.18;;;;;;;4.79;100.00;98996.00;4916914;29;20063;-35
2022/11/22 07:26:16;;;;;;;8.10;5.32;;;;;;;4.86;100.00;98999.56;4898703;29;20079;-36
2022/11/22 07:28:42;;;;;;;11.90;4.45;;;;;;;4.93;100.00;98991.66;4898537;29;20020;-35
2022/11/22 07:31:08;;;;;;;9.63;4.47;;;;;;;4.96;100.00;98985.94;4916171;29;20036;-36
2022/11/22 07:33:34;;;;;;;13.38;4.22;;;;;;;4.88;100.00;99002.06;4914723;29;20532;-37
2022/11/22 07:36:08;;;;;;;12.43;4.72;;;;;;;4.91;100.00;98999.00;4915839;29;20107;-38
2022/11/22 07:38:33;;;;;;;7.93;3.97;;;;;;;4.97;100.00;99000.91;4916074;29;20032;-34
2022/11/22 07:40:59;;;;;;;9.18;4.07;;;;;;;4.96;100.00;99001.94;4915756;29;20091;-39
2022/11/22 07:43:24;;;;;;;11.98;4.50;;;;;;;4.94;100.00;99010.09;4915957;29;20055;-36
2022/11/22 07:45:50;;;;;;;17.27;4.43;;;;;;;4.86;100.00;99018.22;4915819;29;20028;-38
2022/11/22 07:48:15;;;;;;;11.48;4.00;;;;;;;4.91;100.00;99015.81;4915926;29;20039;-36
2022/11/22 07:50:41;;;;;;;9.88;3.88;;;;;;;5.03;100.00;99008.97;4916106;29;20039;-33
2022/11/22 07:53:07;;;;;;;8.57;3.80;;;;;;;4.93;100.00;99027.13;4916269;29;20423;-37
2022/11/22 07:55:32;;;;;;;8.75;3.72;;;;;;;4.95;100.00;99013.59;4916037;29;20479;-37
2022/11/22 07:57:59;;;;;;;11.77;4.32;;;;;;;4.89;100.00;99017.03;4915786;29;20039;-37
2022/11/22 08:00:24;;;;;;;11.73;3.88;;;;;;;4.92;100.00;99017.47;4915771;29;20051;-35
2022/11/22 08:02:50;;;;;;;14.57;3.47;;;;;;;4.93;100.00;99026.31;4909643;29;20059;-37
2022/11/22 08:05:15;;;;;;;14.10;3.72;;;;;;;4.94;100.00;99018.09;4895159;29;20084;-35
2022/11/22 08:07:48;;;;;;;13.65;4.18;;;;;;;4.98;100.00;99026.56;4896845;29;20124;-35
2022/11/22 08:10:14;;;;;;;8.23;3.20;;;;;;;5.00;100.00;99038.69;4896707;29;20060;-36
2022/11/22 08:12:40;;;;;;;12.05;3.35;;;;;;;5.06;100.00;99031.78;4895310;29;20111;-37
2022/11/22 08:15:05;;;;;;;13.43;3.60;;;;;;;5.11;100.00;99036.50;4896759;29;20044;-37
2022/11/22 08:17:31;;;;;;;13.25;3.25;;;;;;;4.96;100.00;99041.91;4896670;29;20032;-36
2022/11/22 08:19:56;;;;;;;8.55;3.20;;;;;;;4.95;100.00;99049.09;4896496;29;20060;-36
2022/11/22 08:22:21;;;;;;;9.25;3.80;;;;;;;4.94;100.00;99047.44;4896474;29;20112;-36
2022/11/22 08:24:47;;;;;;;11.23;3.92;;;;;;;4.92;100.00;99037.97;4896407;29;20677;-34
2022/11/22 08:27:12;;;;;;;15.35;3.83;;;;;;;4.94;100.00;99030.63;4896132;29;20064;-35
2022/11/22 08:29:37;;;;;;;14.05;4.13;;;;;;;4.92;100.00;99037.97;4896876;29;20323;-35
2022/11/22 08:32:03;;;;;;;12.60;3.90;;;;;;;4.91;100.00;99044.31;4896193;29;20159;-36
2022/11/22 08:34:28;;;;;;;13.88;3.80;;;;;;;4.94;100.00;99042.09;4896289;29;20055;-35
2022/11/22 08:36:54;;;;;;;8.98;3.75;;;;;;;4.94;100.00;99049.28;4896331;29;20092;-35
2022/11/22 08:39:20;;;;;;;15.35;4.88;;;;;;;4.94;100.00;99042.09;4896196;29;20028;-35
2022/11/22 08:41:46;;;;;;;11.73;4.18;;;;;;;4.94;100.00;99039.44;4896015;29;20036;-38
2022/11/22 08:44:11;;;;;;;15.70;4.68;;;;;;;5.02;100.00;99065.16;4895950;29;20017;-34
2022/11/22 08:46:36;;;;;;;26.15;4.80;;;;;;;5.06;100.00;99056.59;4895805;29;20491;-36
2022/11/22 08:49:05;;;;;;;17.27;4.40;;;;;;;5.04;100.00;99061.28;4895969;29;20052;-37
2022/11/22 08:51:30;;;;;;;;;;;;;;;5.12;100.00;99068.31;4896456;29;20020;-36
2022/11/22 08:53:55;;;;;;;20.70;5.97;;;;;;;5.17;100.00;99054.44;4895956;29;20342;-37
2022/11/22 08:56:20;;;;;;;15.32;4.65;;;;;;;5.15;100.00;99064.47;4895738;29;20497;-36
2022/11/22 08:58:46;;;;;;;13.60;5.20;;;;;;;5.23;100.00;99062.47;4895828;29;20039;-39
2022/11/22 09:01:14;;;;;;;18.55;5.50;;;;;;;5.14;100.00;99058.31;4895983;29;20060;-36
2022/11/22 09:03:40;;;;;;;8.80;4.55;;;;;;;5.15;100.00;99069.78;4878641;29;20032;-38
2022/11/22 09:06:10;;;;;;;11.57;4.80;;;;;;;5.21;100.00;99053.88;4895794;29;20530;-35
2022/11/22 09:08:36;;;;;;;19.60;5.22;;;;;;;5.26;100.00;99051.41;4895804;29;20475;-38
2022/11/22 09:11:07;;;;;;;12.43;4.78;;;;;;;5.24;100.00;99066.00;4895624;29;20033;-38
2022/11/22 09:13:32;;;;;;;11.70;4.20;;;;;;;5.36;100.00;99076.97;4895735;29;20044;-36
2022/11/22 09:16:07;;;;;;;9.52;3.95;;;;;;;5.37;100.00;99063.44;4895752;29;20035;-36
2022/11/22 09:18:33;;;;;;;12.07;4.43;;;;;;;5.40;100.00;99057.72;4895535;29;20063;-36
2022/11/22 09:21:05;;;;;;;13.48;4.57;;;;;;;5.45;100.00;99065.13;4895547;29;20729;-36
2022/11/22 09:23:31;;;;;;;10.70;3.85;;;;;;;5.42;100.00;99066.34;4894138;29;20131;-39
2022/11/22 09:26:01;;;;;;;9.90;4.70;;;;;;;5.52;100.00;99065.19;4895750;29;20104;-35
2022/11/22 09:28:27;;;;;;;11.68;3.83;;;;;;;5.50;100.00;99063.56;4895453;29;20028;-35
2022/11/22 09:31:07;;;;;;;11.60;4.00;;;;;;;5.43;100.00;99073.34;4895324;29;20092;-37
2022/11/22 09:33:34;;;;;;;10.93;4.05;;;;;;;5.47;100.00;99071.09;4895082;29;20044;-35
2022/11/22 09:36:07;;;;;;;11.23;4.18;;;;;;;5.47;100.00;99071.09;4895727;29;20119;-37
2022/11/22 09:38:33;;;;;;;15.48;3.85;;;;;;;5.55;100.00;99072.81;4895424;29;20052;-36
2022/11/22 09:40:58;;;;;;;11.75;4.15;;;;;;;5.56;100.00;99069.97;4895734;29;20067;-37
2022/11/22 09:44:02;;;;;;;11.25;3.78;;;;;;;5.68;100.00;99072.91;4895331;29;20088;-37
2022/11/22 09:46:42;;;;;;;11.50;4.00;;;;;;;5.78;100.00;99068.06;4895400;29;20036;-35
2022/11/22 09:49:11;;;;;;;13.88;3.90;;;;;;;5.73;100.00;99081.16;4877621;29;20440;-35
2022/11/22 09:51:40;;;;;;;11.82;3.78;;;;;;;5.76;100.00;99072.75;4895349;29;20162;-36
2022/11/22 09:54:19;;;;;;;9.02;3.50;;;;;;;5.75;100.00;99081.81;4895539;29;20029;-38
2022/11/22 09:56:44;;;;;;;10.65;3.75;;;;;;;5.77;100.00;99074.44;4895915;29;20111;-35
2022/11/22 09:59:15;;;;;;;9.43;3.45;;;;;;;5.66;100.00;99089.13;4899078;29;20029;-36
2022/11/22 10:01:58;;;;;;;9.15;3.80;;;;;;;5.71;100.00;99086.72;4899236;29;20045;-35
2022/11/22 10:04:27;;;;;;;10.80;3.08;;;;;;;5.69;100.00;99079.91;4897830;29;20231;-37
2022/11/22 10:07:03;;;;;;;12.30;3.38;;;;;;;5.81;100.00;99081.00;4899154;29;20059;-35
2022/11/22 10:09:40;;;;;;;9.90;3.25;;;;;;;5.82;100.00;99071.16;4882134;29;20055;-35
2022/11/22 10:12:23;;;;;;;9.27;3.15;;;;;;;5.89;100.00;99085.38;4898133;29;20048;-35
2022/11/22 10:15:14;;;;;;;9.30;3.92;;;;;;;5.80;100.00;99067.88;4898886;29;20036;-36
2022/11/22 10:17:48;;;;;;;9.60;3.15;;;;;;;5.87;100.00;99072.25;4898890;29;20029;-36
2022/11/22 10:20:17;;;;;;;5.55;2.30;;;;;;;5.89;100.00;99075.53;4898828;29;20021;-38
2022/11/22 10:22:42;;;;;;;6.78;2.38;;;;;;;5.79;100.00;99075.03;4899054;29;20064;-35
2022/11/22 10:25:22;;;;;;;7.40;2.60;;;;;;;5.79;100.00;99077.72;4898870;29;20040;-35
2022/11/22 10:28:04;;;;;;;5.13;2.40;;;;;;;5.78;100.00;99076.06;4898769;29;20108;-35
2022/11/22 10:30:35;;;;;;;12.32;2.88;;;;;;;5.92;100.00;99080.50;4881539;29;20414;-35
2022/11/22 10:33:08;;;;;;;8.73;2.40;;;;;;;5.89;100.00;99070.19;4912407;29;20048;-36
2022/11/22 10:35:43;;;;;;;10.13;2.88;;;;;;;5.89;100.00;99066.69;4936287;29;20024;-38
2022/11/22 10:38:37;;;;;;;9.38;2.90;;;;;;;5.87;100.00;99076.75;4936067;29;20023;-36
2022/11/22 10:41:29;;;;;;;4.80;2.42;;;;;;;5.92;100.00;99075.16;4914646;29;20131;-38
2022/11/22 10:44:32;;;;;;;11.98;2.53;;;;;;;5.85;100.00;99076.13;4930661;29;20201;-37
2022/11/22 10:47:30;;;;;;;8.35;2.75;;;;;;;5.91;100.00;99070.00;4936311;29;20115;-35
2022/11/22 10:49:55;;;;;;;7.00;2.60;;;;;;;5.88;100.00;99065.88;4919547;29;20035;-38
2022/11/22 10:52:29;;;;;;;8.73;2.92;;;;;;;5.88;100.00;99065.06;4936841;29;20028;-40
2022/11/22 10:55:18;;;;;;;11.68;2.50;;;;;;;5.87;100.00;99064.25;4919322;29;20530;-38
2022/11/22 10:58:02;;;;;;;8.68;2.58;;;;;;;5.99;100.00;99058.38;4936314;29;20146;-36
2022/11/22 11:00:28;;;;;;;14.73;3.10;;;;;;;6.01;100.00;99053.69;4935779;29;20494;-34
2022/11/22 11:03:05;;;;;;;8.90;2.20;;;;;;;5.97;100.00;99057.75;4918612;29;20039;-40
2022/11/22 11:05:40;;;;;;;7.50;2.35;;;;;;;5.98;100.00;99054.88;4918740;29;20398;-35
2022/11/22 11:08:10;;;;;;;12.50;2.53;;;;;;;5.90;100.00;99061.19;4918552;29;20024;-38
2022/11/22 11:10:36;;;;;;;11.18;2.92;;;;;;;6.01;100.00;99059.00;4918777;29;20054;-37
2022/11/22 11:13:05;;;;;;;9.25;2.90;;;;;;;5.96;100.00;99059.59;4935987;29;20028;-38
2022/11/22 11:15:38;;;;;;;11.38;3.00;;;;;;;6.01;100.00;99057.16;4918774;29;20063;-37
2022/11/22 11:18:09;;;;;;;4.47;2.60;;;;;;;5.99;100.00;99045.03;4919137;29;20038;-36
2022/11/22 11:20:38;;;;;;;13.98;2.92;;;;;;;6.00;100.00;99046.66;4918570;29;20499;-35
2022/11/22 11:23:03;;;;;;;8.52;2.63;;;;;;;5.98;100.00;99046.88;4920177;29;20096;-37
2022/11/22 11:25:31;;;;;;;6.38;2.85;;;;;;;6.00;100.00;99052.00;4897535;29;20040;-36
2022/11/22 11:28:01;;;;;;;;;;;;;;;6.03;100.00;99046.25;4898120;29;20055;-36
2022/11/22 11:30:27;;;;;;;10.73;2.70;;;;;;;6.06;100.00;99040.56;4896640;29;20393;-36
2022/11/22 11:32:54;;;;;;;8.00;2.60;;;;;;;6.13;100.00;99028.91;4897289;29;20053;-39
2022/11/22 11:35:21;;;;;;;10.82;3.10;;;;;;;6.13;100.00;99036.06;4897531;29;20116;-36
2022/11/22 11:37:46;;;;;;;6.65;2.70;;;;;;;6.09;100.00;99024.97;4880766;29;20119;-37
2022/11/22 11:40:30;;;;;;;11.88;3.20;;;;;;;6.17;100.00;99037.31;4897479;29;20144;-35
2022/11/22 11:43:15;;;;;;;9.68;2.55;;;;;;;6.26;100.00;99030.78;4897566;29;20067;-38
2022/11/22 11:45:40;;;;;;;7.97;2.47;;;;;;;6.26;100.00;99033.44;4897470;29;20037;-37